Caliente, Nevada Weather observations

Data are for observation ending at time listed.
 Day   Time    Ave.   Ave.  Ave.  Vector   Max.   Stn.    Total    Solar   Ave.  
  of    of     Air    Rel.  Wind   Wind    Wind   Baro.  Precip.   Rad.    Soil  
Year   Day     Temp.  Hum.  Speed  Dir.    Gust   Pres.                    Temp. 
2017   (PST)    F      %     mph   deg.    mph     mb.     in.     W/m2     F   
------------------------------------------------------------------------------
  15   18:00   37.5    66    3.0    53      7.9   867.7    0.00       0    40.6
  15   18:10   37.0    67    4.0    43      7.0   867.8    0.00       0    40.7
  15   18:20   36.6    67    2.3    59      7.2   867.8    0.00       0    40.7
  15   18:30   36.3    67    1.6    82      5.1   867.9    0.00       0    40.5
  15   18:40   36.1    68    1.6    78      5.0   868.1    0.00       0    40.4
  15   18:50   35.7    68    1.4    82      4.3   868.2    0.00       0    40.1
  15   19:00   35.5    68    1.6    81      4.9   868.3    0.00       0    40.2
  15   19:10   35.0    69    1.4    93      3.6   868.3    0.00       0    39.6
  15   19:20   34.6    70    1.7    87      5.6   868.4    0.00       0    40.0
  15   19:30   34.1    71    1.5    76      5.6   868.5    0.00       0    39.7
  15   19:40   33.6    72    1.8    67      5.1   868.5    0.00       0    39.7
  15   19:50   33.4    72    0.9    86      2.7   868.5    0.00       0    39.5
  15   20:00   33.3    71    1.4   115      4.8   868.5    0.00       0    39.4
  15   20:10   33.3    71    1.9   116      5.0   868.5    0.00       0    39.3
  15   20:20   33.0    71    2.3   108      6.7   868.6    0.00       0    39.1
  15   20:30   32.9    71    1.4    44      3.4   868.7    0.00       0    39.2
  15   20:40   32.4    72    0.4    77      1.8   868.9    0.00       0    39.0
  15   20:50   31.6    74    0.6   149      2.4   869.0    0.00       0    39.2
  15   21:00   31.5    74    1.9   115      5.3   869.1    0.00       0    38.5
  15   21:10   31.6    74    1.4   111      5.0   869.1    0.00       0    38.6
  15   21:20   31.4    74    0.9   100      2.4   869.3    0.00       0    38.6
  15   21:30   31.2    74    1.9   102      4.5   869.3    0.00       0    38.3
  15   21:40   31.1    75    1.4    54      4.8   869.4    0.00       0    38.4
  15   21:50   31.0    75    2.9   102      6.4   869.5    0.00       0    38.2
  15   22:00   31.0    75    1.1    87      4.9   869.6    0.00       0    38.2
  15   22:10   30.6    76    1.4    32      3.7   869.6    0.00       0    38.0
  15   22:20   30.6    75    1.1   100      3.0   869.6    0.00       0    38.0
  15   22:30   30.5    75    0.5    95      2.3   869.6    0.00       0    37.8
  15   22:40   29.8    77    1.2   150      2.5   869.6    0.00       0    37.7
  15   22:50   29.6    77    0.5   156      2.3   869.6    0.00       0    37.7
  15   23:00   29.2    78    0.4   300      1.5   869.7    0.00       0    37.7
  15   23:10   29.3    78    0.7   331      1.9   869.8    0.00       0    37.4
  15   23:20   28.7    79    0.7   122      2.5   869.8    0.00       0    37.4
  15   23:30   28.6    79    1.1   107      4.0   869.7    0.00       0    37.3
  15   23:40   29.4    76    1.8    94      6.6   869.7    0.00       0    37.2
  15   23:50   29.8    74    1.6    88      4.8   869.8    0.00       0    37.2
  16    0:00   29.6    74    0.8    49      3.2   869.9    0.00       0    37.0
  16    0:10   29.3    75    1.9    62      5.8   869.9    0.00       0    37.1
  16    0:20   29.2    75    1.7    59      5.3   869.9    0.00       0    37.0
  16    0:30   29.1    74    1.2    41      3.7   869.8    0.00       0    36.8
  16    0:40   28.9    74    1.5    31      6.4   870.0    0.00       0    36.8
  16    0:50   28.7    74    1.4    10      3.8   870.1    0.00       0    36.6
  16    1:00   28.4    74    0.8    29      2.3   870.1    0.00       0    36.6
  16    1:10   28.2    75    1.9    54      4.5   870.2    0.00       0    36.6
  16    1:20   28.6    73    2.3    56      6.1   870.2    0.00       0    36.6
  16    1:30   28.5    72    3.1    18      5.6   870.1    0.00       0    36.2
  16    1:40   28.2    73    3.3    28      6.8   870.2    0.00       0    36.2
  16    1:50   27.9    74    3.2    35      6.5   870.2    0.00       0    35.9
  16    2:00   27.7    74    2.5    10      5.3   870.3    0.00       0    35.9
  16    2:10   27.7    74    1.8    46      4.2   870.3    0.00       0    35.7
  16    2:20   27.7    74    2.0    42      5.8   870.3    0.00       0    36.1
  16    2:30   27.6    74    1.0    48      3.7   870.3    0.00       0    35.8
  16    2:40   27.4    74    2.0   346      3.5   870.3    0.00       0    35.6
  16    2:50   27.2    74    0.7   327      2.9   870.3    0.00       0    35.6
  16    3:00   26.5    76    0.3   237      1.1   870.2    0.00       0    35.7
  16    3:10   25.7    78    0.5   160      1.8   870.1    0.00       0    35.5
  16    3:20   25.4    80    1.0   226      2.3   870.1    0.00       0    35.4
  16    3:30   25.0    80    0.2   211      1.2   870.1    0.00       0    35.4
  16    3:40   25.2    81    1.0   250      2.0   870.1    0.00       0    35.2
  16    3:50   24.8    81    1.1   224      2.1   870.1    0.00       0    35.2
  16    4:00   24.4    82    0.4   129      1.5   870.1    0.00       0    35.2
  16    4:10   24.5    82    0.4   334      1.8   870.1    0.00       0    35.1
  16    4:20   24.7    82    1.0   113      7.7   870.1    0.00       0    35.0
  16    4:30   26.6    75    2.7    82      7.7   870.2    0.00       0    34.7
  16    4:40   27.0    73    4.2    50     10.7   870.2    0.00       0    34.9
  16    4:50   26.8    73    4.1    43      8.9   870.3    0.00       0    34.7
  16    5:00   26.9    72    4.3    38      9.6   870.3    0.00       0    34.5
  16    5:10   26.1    75    3.9     9      7.6   870.3    0.00       0    34.6
  16    5:20   25.5    77    3.0    29      5.7   870.4    0.00       0    34.5
  16    5:30   26.5    75    3.0    48      8.0   870.5    0.00       0    34.5
  16    5:40   27.7    70    2.3    87      8.3   870.5    0.00       0    34.4
  16    5:50   26.5    73    2.8     4      4.2   870.6    0.00       0    34.2
  16    6:00   26.0    75    2.6    52      5.9   870.6    0.00       0    34.3
  16    6:10   27.0    72    2.8    62      6.9   870.7    0.00       0    34.3
  16    6:20   26.0    74    3.6   359      7.4   870.8    0.00       0    34.1
  16    6:30   26.4    74    3.0    45      6.5   870.9    0.00       0    34.2
  16    6:40   25.7    75    2.4   335      7.5   871.0    0.00       0    34.3
  16    6:50   25.1    77    2.7   326      6.2   871.0    0.00       2    34.2
  16    7:00   24.6    78    3.8   321      7.5   871.0    0.00       3    34.2
  16    7:10   24.5    78    0.7   228      2.7   871.1    0.00       5    34.0
  16    7:20   24.4    79    1.4   234      3.4   871.2    0.00       9    34.0
  16    7:30   25.7    75    3.2    29      9.3   871.3    0.00      10    34.0
  16    7:40   26.2    73    2.6   328      5.3   871.4    0.00      12    33.8
  16    7:50   26.4    73    1.8   330      5.3   871.4    0.00      62    33.8
  16    8:00   27.5    71    1.7   325      3.9   871.5    0.00      61    33.8
  16    8:10   27.6    71    1.3   141      2.7   871.7    0.00     117    33.6
  16    8:20   28.5    69    1.2   149      2.5   871.8    0.00     107    33.8
  16    8:30   29.4    67    1.0   180      2.5   871.8    0.00     160    33.6
  16    8:40   30.6    64    2.3    81     11.1   871.8    0.00     205    33.7
  16    8:50   31.7    60    3.6    70     10.2   871.9    0.00     227    33.7
  16    9:00   32.1    58    3.7    82     12.9   872.0    0.00     248    33.6
  16    9:10   32.0    57    4.2    81     11.5   872.0    0.00     268    33.7
  16    9:20   32.4    57    4.5    60     13.4   872.1    0.00     287    33.7
  16    9:30   32.4    57    4.2    78     11.3   872.1    0.00     305    33.7
  16    9:40   32.6    57    4.9    82     13.2   872.2    0.00     322    33.9
  16    9:50   33.0    56    4.5    80     14.5   872.3    0.00     339    33.9
  16   10:00   33.6    54    7.3    44     15.9   872.4    0.00     353    34.0
  16   10:10   34.4    52    5.2    44     12.2   872.4    0.00     367    34.1
  16   10:20   35.0    48    7.9    38     17.0   872.4    0.00     381    34.2
  16   10:30   35.4    48    5.5    44     12.5   872.4    0.00     393    34.3
  16   10:40   36.0    48    4.7    52     11.1   872.2    0.00     404    34.5
  16   10:50   36.9    46    4.8    54     11.5   872.0    0.00     414    34.6
  16   11:00   37.1    44    4.1    45     10.8   871.8    0.00     423    34.7
  16   11:10   37.9    42    4.3    68     12.9   871.5    0.00     430    35.0
  16   11:20   37.9    41    4.5    89     11.4   871.3    0.00     436    35.3
  16   11:30   38.4    40    3.4    71      9.2   871.1    0.00     439    35.4
  16   11:40   39.1    39    3.4    26      7.5   871.0    0.00     442    35.7
  16   11:50   40.3    35    3.6    62      8.8   870.8    0.00     443    35.8
  16   12:00   41.2    34    3.8    52     12.3   870.6    0.00     445    35.9
  16   12:10   41.4    33    4.4    53     12.3   870.4    0.00     445    36.1
  16   12:20   41.8    32    4.1    39      9.9   870.2    0.00     442    36.3
  16   12:30   42.1    31    4.6    42      9.8   870.0    0.00     440    36.5
  16   12:40   42.6    31    3.9    62      9.1   869.8    0.00     435    36.6
  16   12:50   42.6    31    4.4    83     10.9   869.6    0.00     430    36.8
  16   13:00   42.5    30    4.9    69     11.6   869.4    0.00     422    37.0
  16   13:10   43.4    30    5.8    44     12.4   869.3    0.00     412    37.0
  16   13:20   43.5    30    3.7    73      8.9   869.2    0.00     401    37.4
  16   13:30   43.6    30    4.8    78     17.0   869.1    0.00     363    37.5
  16   13:40   44.0    30    5.3    74     15.2   869.0    0.00     157    37.5
  16   13:50   44.2    30    5.6    44     11.8   869.0    0.00      28    37.6
  16   14:00   44.0    30    5.7    41     15.6   868.9    0.00      24    37.8
  16   14:10   44.6    30    5.9    27     11.5   868.9    0.00      23    37.9
  16   14:20   44.4    30    4.8    13     11.4   868.9    0.00      23    38.1
  16   14:30   44.5    29    7.2    49     16.2   868.8    0.00      22    38.0
  16   14:40   44.3    29    7.1    55     16.0   868.8    0.00      21    37.9
  16   14:50   44.3    32    5.6    57     14.6   868.9    0.00      20    38.2
  16   15:00   43.3    36    5.5   106     14.2   868.9    0.00      20    38.3
  16   15:10   43.0    37    5.4   103     13.8   869.0    0.00      20    38.4
  16   15:20   42.9    37    5.6   103     12.3   869.1    0.00      21    38.4
  16   15:30   43.1    36    3.6    95     12.7   869.2    0.00      77    38.4
  16   15:40   43.0    37    4.8    99     11.2   869.2    0.00     150    38.5
  16   15:50   42.3    39    3.8    97     10.3   869.3    0.00     126    38.5
  16   16:00   41.2    40    6.8   105     13.7   869.4    0.00      23    38.5
  16   16:10   40.9    41    5.9   113     12.1   869.5    0.00      73    38.5
  16   16:20   40.8    41    5.7   118     12.6   869.7    0.00      55    38.6
  16   16:30   40.7    41    4.0   104      9.3   869.8    0.00      31    38.5
  16   16:40   39.9    42    6.2   104     12.3   869.8    0.00       7    38.3
  16   16:50   39.0    44    3.6   103      8.6   870.0    0.00       5    38.6
  16   17:00   38.3    45    6.7   106     11.8   870.1    0.00       2    38.4
  16   17:10   37.8    46    4.7    98     10.8   870.3    0.00       0    38.4
  16   17:20   37.4    47    2.7    70      9.3   870.5    0.00       0    38.3
  16   17:30   36.8    48    2.8    44      7.5   870.7    0.00       0    38.3
  16   17:40   36.3    49    2.0    44      7.9   870.9    0.00       0    38.2
  16   17:50   35.4    50    1.8    91      5.9   871.0    0.00       0    38.2

Return to Caliente, Nevada graphs page.


Western Regional Climate Center,wrcc@dri.edu